Accueil
METAR-TAF:

METAR-TAF

Aéroports :

Fritzlar, Allemagne

latitude: 51-07N, longitude: 009-17E, altitude: 172 m

Observation

Le bulletin a été fait il y a 15 minutes, à 00:20 UTC
Vent 8 kt de est/nord-est
Température -4°C
Humidité 54%
Pression 1024 hPa
Visibilité 10 km ou plus

METAR: ETHF 240020Z AUTO 07008KT 9999 // ////// M04/M12 Q1024 ///

Heure: 01:35 (00:35 UTC)

Prévision

Le bulletin a été fait il y a 11 heures et 9 minutes, à 13:26 UTC
Prévision valable du 23 à 09 UTC au 23 à 18 UTC
Vent 12 kt de est
Visibilité 10 km ou plus
Quelques nuages à une hauteur de 4000 ft
Probabilité 30%
du 23 à 11 UTC au 23 à 17 UTC
Vent 15 kt de est/nord-est avec des rafales jusqu'à 25 kt
Visibilité: 1400 m
Nuages épars à une hauteur de 4000 ft

TAF: ETHF 231326Z 2309/2318 08012KT 9999 NSW FEW040 PROB30 2311/2317 07015G25KT 9999 NSW SCT040 CANCEL 1400

Observations et prévisions météorologiques de plus de 4000 aéroports (messages METAR et TAF).

Les stations disponibles sont représentées par des disques jaunes et rouges sur la carte.

Passer la souris dessus pour voir le nom de la station.

Cliquer dessus pour voir les observations et prévisions météorologiques.

Pour changer de carte: cliquez sur les boutons verts avec une croix noire pour zoomer, sur le bouton vert avec un tiret pour effectuer un zoom arrière, ou sur les flèches vertes pour les cartes adjacentes.


METAR-TAF: